KCAK/CAK METAR and TAF weather

Enter ICAO airport designator
Station Type Date Time Source
KCAK METAR 2018/01/21 11:51 UTC NOAA

KCAK 211151Z 19005KT 1/4SM R23/1800V2600FT -RA FG VV002 03/02 A3010 RMK AO2 SLP201 4/002 P0001 60001 70001 T00280017 10044 20028 52000


Station Type Date Time Source
KCAK Decoded METAR 2018/01/21 11:51 UTC NOAA

AKRON-CANTON REGIONAL AIRPORT , OH, United States (KCAK) 40-55N 081-27W 377M
Jan 21, 2018 - 06:51 AM EST / 2018.01.21 1151 UTC
Wind: from the S (190 degrees) at 6 MPH (5 KT) (direction variable):0
Visibility: 1/4 mile(s):0
Sky conditions: obscured
Weather: light rain; fog; 2 inches of snow on ground
Precipitation last hour: 0.01 inches
Temperature: 37.0 F (2.8 C)
Dew Point: 35.1 F (1.7 C)
Relative Humidity: 92%
Pressure (altimeter): 30.1 in. Hg (1019 hPa)
Pressure tendency: 0.00 inches (0.0 hPa) higher than three hours ago
ob: KCAK 211151Z 19005KT 1/4SM R23/1800V2600FT -RA FG VV002 03/02 A3010 RMK AO2 SLP201 4/002 P0001 60001 70001 T00280017 10044 20028 52000
cycle: 12

Station Type Date Time Source
KCAK TAF 2018/01/21 12:22 UTC NOAA

TAF KCAK 211120Z 2112/2212 21005KT 3/4SM BR OVC003
TEMPO 2112/2116 1/4SM -DZ FG VV001
FM211800 19005KT 3SM BR OVC006
FM220200 20007KT 3SM BR OVC003
FM221100 18007KT 3SM BR OVC015


Example: see airport list